createdAt,value
2019-01-28T00:00:37.041Z,0
2019-01-28T00:01:45.101Z,0
2019-01-28T00:02:53.156Z,0
2019-01-28T00:04:01.219Z,0
2019-01-28T00:05:09.276Z,0
2019-01-28T00:06:17.332Z,0
2019-01-28T00:07:25.383Z,0
2019-01-28T00:08:33.433Z,0
2019-01-28T00:09:41.489Z,0
2019-01-28T00:10:49.560Z,0
2019-01-28T00:11:57.606Z,0
2019-01-28T00:13:05.660Z,0
2019-01-28T00:14:13.717Z,0
2019-01-28T00:15:21.796Z,0
2019-01-28T00:16:29.833Z,0
2019-01-28T00:17:37.897Z,0
2019-01-28T00:18:45.940Z,0
2019-01-28T00:19:53.983Z,0
2019-01-28T00:21:02.058Z,0
2019-01-28T00:22:10.117Z,0
2019-01-28T00:23:18.175Z,0
2019-01-28T00:24:26.228Z,0
2019-01-28T00:25:34.259Z,0
2019-01-28T00:26:42.336Z,0
2019-01-28T00:27:50.394Z,0
2019-01-28T00:28:58.458Z,0
2019-01-28T00:30:06.505Z,0
2019-01-28T00:31:14.541Z,0
2019-01-28T00:32:22.609Z,0
2019-01-28T00:33:30.673Z,0
2019-01-28T00:34:38.725Z,0
2019-01-28T00:35:46.791Z,0
2019-01-28T00:36:54.828Z,0
2019-01-28T00:38:02.916Z,0
2019-01-28T00:39:10.958Z,0
2019-01-28T00:40:19.017Z,0
2019-01-28T00:41:27.067Z,0
2019-01-28T00:42:35.133Z,0
2019-01-28T00:43:43.178Z,0
2019-01-28T00:44:51.247Z,0
2019-01-28T00:45:59.307Z,0
2019-01-28T00:47:07.359Z,0
2019-01-28T00:48:16.666Z,0
2019-01-28T00:49:23.474Z,0
2019-01-28T00:50:31.561Z,0
2019-01-28T00:51:39.577Z,0
2019-01-28T00:52:47.625Z,0
2019-01-28T00:53:55.688Z,0
2019-01-28T00:55:03.733Z,0
2019-01-28T00:56:11.808Z,0
2019-01-28T00:57:19.866Z,0
2019-01-28T00:58:27.912Z,0
2019-01-28T00:59:35.961Z,0
2019-01-28T01:00:44.005Z,0
2019-01-28T01:01:52.084Z,0
2019-01-28T01:03:00.135Z,0
2019-01-28T01:04:08.199Z,0
2019-01-28T01:05:16.258Z,0
2019-01-28T01:06:24.291Z,0
2019-01-28T01:07:32.369Z,0
2019-01-28T01:08:40.418Z,0
2019-01-28T01:09:48.510Z,0
2019-01-28T01:10:56.528Z,0
2019-01-28T01:12:04.564Z,0
2019-01-28T01:13:12.649Z,0
2019-01-28T01:14:20.799Z,0
2019-01-28T01:15:28.785Z,0
2019-01-28T01:16:36.843Z,0
2019-01-28T01:17:44.867Z,0
2019-01-28T01:18:52.949Z,0
2019-01-28T01:20:00.999Z,0
2019-01-28T01:21:09.096Z,0
2019-01-28T01:22:17.138Z,0
2019-01-28T01:23:25.167Z,0
2019-01-28T01:24:33.214Z,0
2019-01-28T01:25:41.275Z,0
2019-01-28T01:26:49.322Z,0
2019-01-28T01:27:57.394Z,0
2019-01-28T01:29:05.446Z,0
2019-01-28T01:30:13.508Z,0
2019-01-28T01:31:21.565Z,0
2019-01-28T01:32:29.639Z,0
2019-01-28T01:33:37.670Z,0
2019-01-28T01:34:45.726Z,0
2019-01-28T01:35:53.777Z,0
2019-01-28T01:37:01.855Z,0
2019-01-28T01:38:09.894Z,0
2019-01-28T01:39:17.951Z,0
2019-01-28T01:40:25.998Z,0
2019-01-28T01:41:34.033Z,0
2019-01-28T01:42:42.156Z,0
2019-01-28T01:43:50.172Z,0
2019-01-28T01:44:58.243Z,0
2019-01-28T01:46:06.285Z,0
2019-01-28T01:47:14.312Z,0
2019-01-28T01:48:22.413Z,0
2019-01-28T01:49:30.456Z,0
2019-01-28T01:50:38.522Z,0
2019-01-28T01:51:46.565Z,0
2019-01-28T01:52:54.594Z,0
2019-01-28T01:54:02.703Z,0
2019-01-28T01:55:10.751Z,0
2019-01-28T01:56:18.803Z,0
2019-01-28T01:57:26.855Z,0
2019-01-28T01:58:34.891Z,0
2019-01-28T01:59:42.963Z,0
2019-01-28T02:00:51.037Z,0
2019-01-28T02:01:59.060Z,0
2019-01-28T02:03:07.125Z,0
2019-01-28T02:04:15.192Z,0
2019-01-28T02:05:23.237Z,0
2019-01-28T02:06:31.289Z,0
2019-01-28T02:07:39.356Z,0
2019-01-28T02:08:47.413Z,0
2019-01-28T02:09:55.484Z,0
2019-01-28T02:11:03.523Z,0
2019-01-28T02:12:11.564Z,0
2019-01-28T02:13:19.624Z,0
2019-01-28T02:14:27.674Z,0
2019-01-28T02:15:35.733Z,0
2019-01-28T02:16:43.783Z,0
2019-01-28T02:17:51.861Z,0
2019-01-28T02:18:59.909Z,0
2019-01-28T02:20:07.998Z,0
2019-01-28T02:21:16.021Z,0
2019-01-28T02:22:24.045Z,0
2019-01-28T02:23:32.129Z,0
2019-01-28T02:24:40.181Z,0
2019-01-28T02:25:48.236Z,0
2019-01-28T02:26:56.311Z,0
2019-01-28T02:28:04.327Z,0
2019-01-28T02:29:12.404Z,0
2019-01-28T02:30:20.456Z,0
2019-01-28T02:31:28.526Z,0
2019-01-28T02:32:36.581Z,0
2019-01-28T02:33:44.605Z,0
2019-01-28T02:34:52.687Z,0
2019-01-28T02:36:00.755Z,0
2019-01-28T02:37:08.814Z,0
2019-01-28T02:38:16.859Z,0
2019-01-28T02:39:24.901Z,0
2019-01-28T02:40:33.013Z,0
2019-01-28T02:41:41.024Z,0
2019-01-28T02:42:49.074Z,0
2019-01-28T02:43:57.148Z,0
2019-01-28T02:45:05.202Z,0
2019-01-28T02:46:13.243Z,0
2019-01-28T02:47:21.304Z,0
2019-01-28T02:48:29.370Z,0
2019-01-28T02:49:37.418Z,0
2019-01-28T02:50:45.481Z,0
2019-01-28T02:51:53.530Z,0
2019-01-28T02:53:01.592Z,0
2019-01-28T02:54:09.653Z,0
2019-01-28T02:55:17.707Z,0
2019-01-28T02:56:25.749Z,0
2019-01-28T02:57:33.798Z,0
2019-01-28T02:58:41.857Z,0
2019-01-28T02:59:49.962Z,0
2019-01-28T03:00:57.972Z,0
2019-01-28T03:02:06.035Z,0
2019-01-28T03:03:14.068Z,0
2019-01-28T03:04:22.129Z,0
2019-01-28T03:05:30.205Z,0
2019-01-28T03:06:38.262Z,0
2019-01-28T03:07:46.321Z,0
2019-01-28T03:08:54.345Z,0
2019-01-28T03:10:02.434Z,0
2019-01-28T03:11:10.564Z,0
2019-01-28T03:12:18.543Z,0
2019-01-28T03:13:26.582Z,0
2019-01-28T03:14:34.628Z,0
2019-01-28T03:15:42.713Z,0
2019-01-28T03:16:50.774Z,0
2019-01-28T03:17:58.822Z,0
2019-01-28T03:19:06.874Z,0
2019-01-28T03:20:14.949Z,0
2019-01-28T03:21:22.995Z,0
2019-01-28T03:22:31.053Z,0
2019-01-28T03:23:39.096Z,0
2019-01-28T03:24:47.154Z,0
2019-01-28T03:25:55.237Z,0
2019-01-28T03:27:03.272Z,0
2019-01-28T03:28:11.326Z,0
2019-01-28T03:29:19.384Z,0
2019-01-28T03:30:27.439Z,0
2019-01-28T03:31:35.484Z,0
2019-01-28T03:32:43.580Z,0
2019-01-28T03:33:51.599Z,0
2019-01-28T03:34:59.661Z,0
2019-01-28T03:36:07.713Z,0
2019-01-28T03:37:15.769Z,0
2019-01-28T03:38:23.815Z,0
2019-01-28T03:39:31.891Z,0
2019-01-28T03:40:39.955Z,0
2019-01-28T03:41:47.988Z,0
2019-01-28T03:42:56.051Z,0
2019-01-28T03:44:04.082Z,0
2019-01-28T03:45:12.163Z,0
2019-01-28T03:46:20.217Z,0
2019-01-28T03:47:28.365Z,0
2019-01-28T03:48:36.339Z,0
2019-01-28T03:49:44.412Z,0
2019-01-28T03:50:52.463Z,0
2019-01-28T03:52:00.543Z,0
2019-01-28T03:53:08.560Z,0
2019-01-28T03:54:16.614Z,0
2019-01-28T03:55:24.645Z,0
2019-01-28T03:56:32.709Z,0
2019-01-28T03:57:40.789Z,0
2019-01-28T03:58:48.846Z,0
2019-01-28T03:59:56.890Z,0
2019-01-28T04:01:04.939Z,0
2019-01-28T04:02:12.998Z,0
2019-01-28T04:03:21.054Z,0
2019-01-28T04:04:29.107Z,0
2019-01-28T04:05:37.171Z,0
2019-01-28T04:06:45.235Z,0
2019-01-28T04:07:53.290Z,0
2019-01-28T04:09:01.349Z,0
2019-01-28T04:10:09.432Z,0
2019-01-28T04:11:17.466Z,0
2019-01-28T04:12:25.524Z,0
2019-01-28T04:13:33.551Z,0
2019-01-28T04:14:41.628Z,0
2019-01-28T04:15:49.687Z,0
2019-01-28T04:16:57.726Z,0
2019-01-28T04:18:05.798Z,0
2019-01-28T04:19:13.827Z,0
2019-01-28T04:20:21.898Z,0
2019-01-28T04:21:29.968Z,0
2019-01-28T04:22:38.004Z,0
2019-01-28T04:23:46.079Z,0
2019-01-28T04:24:54.088Z,0
2019-01-28T04:26:02.177Z,0
2019-01-28T04:27:10.233Z,0
2019-01-28T04:28:18.297Z,0
2019-01-28T04:29:26.335Z,0
2019-01-28T04:30:34.367Z,0
2019-01-28T04:31:42.442Z,0
2019-01-28T04:32:50.510Z,0
2019-01-28T04:33:58.584Z,0
2019-01-28T04:35:06.628Z,0
2019-01-28T04:36:14.650Z,0
2019-01-28T04:37:22.720Z,0
2019-01-28T04:38:30.793Z,0
2019-01-28T04:39:38.842Z,0
2019-01-28T04:40:46.900Z,0
2019-01-28T04:41:54.940Z,0
2019-01-28T04:43:02.993Z,0
2019-01-28T04:44:11.073Z,0
2019-01-28T04:45:19.115Z,0
2019-01-28T04:46:27.179Z,0
2019-01-28T04:47:35.227Z,0
2019-01-28T04:48:43.292Z,0
2019-01-28T04:49:51.367Z,0
2019-01-28T04:50:59.396Z,0
2019-01-28T04:52:07.465Z,0
2019-01-28T04:53:15.506Z,0
2019-01-28T04:54:23.562Z,0
2019-01-28T04:55:31.620Z,0
2019-01-28T04:56:39.681Z,0
2019-01-28T04:57:47.736Z,0
2019-01-28T04:58:55.798Z,0
2019-01-28T05:00:03.836Z,0
2019-01-28T05:01:11.901Z,0
2019-01-28T05:02:19.957Z,0
2019-01-28T05:03:28.010Z,0
2019-01-28T05:04:36.074Z,0
2019-01-28T05:05:44.096Z,0
2019-01-28T05:06:52.167Z,0
2019-01-28T05:08:00.224Z,0
2019-01-28T05:09:08.306Z,0
2019-01-28T05:10:16.371Z,0
2019-01-28T05:11:24.393Z,0
2019-01-28T05:12:32.454Z,0
2019-01-28T05:13:40.506Z,0
2019-01-28T05:14:48.570Z,0
2019-01-28T05:15:56.905Z,0
2019-01-28T05:17:04.658Z,0
2019-01-28T05:18:12.736Z,0
2019-01-28T05:19:20.787Z,0
2019-01-28T05:20:28.856Z,0
2019-01-28T05:21:36.907Z,0
2019-01-28T05:22:46.602Z,0
2019-01-28T05:23:53.021Z,0
2019-01-28T05:25:01.070Z,0
2019-01-28T05:26:09.131Z,0
2019-01-28T05:27:17.180Z,0
2019-01-28T05:28:25.249Z,0
2019-01-28T05:29:33.338Z,0
2019-01-28T05:30:41.378Z,0
2019-01-28T05:31:49.454Z,0
2019-01-28T05:32:57.450Z,0
2019-01-28T05:34:05.703Z,0
2019-01-28T05:35:13.606Z,0
2019-01-28T05:36:21.634Z,0
2019-01-28T05:37:29.727Z,0
2019-01-28T05:38:37.989Z,0
2019-01-28T05:39:45.794Z,0
2019-01-28T05:40:53.835Z,0
2019-01-28T05:42:01.920Z,0
2019-01-28T05:43:10.200Z,0
2019-01-28T05:44:18.019Z,0
2019-01-28T05:45:26.082Z,0
2019-01-28T05:46:34.115Z,0
2019-01-28T05:47:42.187Z,0
2019-01-28T05:48:50.236Z,0
2019-01-28T05:49:58.300Z,0
2019-01-28T05:51:06.352Z,0
2019-01-28T05:52:14.373Z,0
2019-01-28T05:53:22.454Z,0
2019-01-28T05:54:30.514Z,0
2019-01-28T05:55:38.590Z,0
2019-01-28T05:56:46.747Z,0
2019-01-28T05:57:55.076Z,0
2019-01-28T05:59:02.763Z,0
2019-01-28T06:00:10.792Z,0
2019-01-28T06:01:18.855Z,0
2019-01-28T06:02:26.911Z,0
2019-01-28T06:03:34.964Z,0
2019-01-28T06:04:43.025Z,0
2019-01-28T06:05:51.080Z,0
2019-01-28T06:07:00.416Z,0
2019-01-28T06:08:07.185Z,0
2019-01-28T06:09:15.250Z,0
2019-01-28T06:10:23.840Z,0
2019-01-28T06:11:31.339Z,0
2019-01-28T06:12:39.405Z,0
2019-01-28T06:13:47.461Z,0
2019-01-28T06:14:55.520Z,0
2019-01-28T06:16:03.584Z,0
2019-01-28T06:17:11.639Z,0
2019-01-28T06:18:19.693Z,0
2019-01-28T06:19:27.739Z,0
2019-01-28T06:20:35.835Z,0
2019-01-28T06:21:43.835Z,0
2019-01-28T06:22:51.922Z,0
2019-01-28T06:23:59.966Z,0
2019-01-28T06:25:08.025Z,0
2019-01-28T06:26:16.077Z,0
2019-01-28T06:27:24.109Z,0
2019-01-28T06:28:32.188Z,0
2019-01-28T06:29:40.246Z,0
2019-01-28T06:30:48.295Z,0
2019-01-28T06:31:56.361Z,0
2019-01-28T06:33:04.385Z,0
2019-01-28T06:34:12.462Z,0
2019-01-28T06:35:20.529Z,0
2019-01-28T06:36:28.589Z,0
2019-01-28T06:37:36.653Z,0
2019-01-28T06:38:44.657Z,0
2019-01-28T06:39:52.793Z,0
2019-01-28T06:41:00.808Z,0
2019-01-28T06:42:08.857Z,0
2019-01-28T06:43:16.929Z,0
2019-01-28T06:44:24.997Z,0
2019-01-28T06:45:33.047Z,0
2019-01-28T06:46:41.096Z,0
2019-01-28T06:47:49.153Z,0
2019-01-28T06:48:57.206Z,0
2019-01-28T06:50:05.264Z,0
2019-01-28T06:51:13.314Z,0
2019-01-28T06:52:21.382Z,0
2019-01-28T06:53:29.420Z,5
2019-01-28T06:54:37.491Z,5
2019-01-28T06:55:45.543Z,5
2019-01-28T06:56:53.585Z,5
2019-01-28T06:58:01.643Z,5
2019-01-28T06:59:09.746Z,5
2019-01-28T07:00:17.764Z,10
2019-01-28T07:01:25.827Z,10
2019-01-28T07:02:33.847Z,10
2019-01-28T07:03:41.932Z,10
2019-01-28T07:04:49.997Z,10
2019-01-28T07:05:58.043Z,10
2019-01-28T07:07:06.100Z,10
2019-01-28T07:08:14.145Z,15
2019-01-28T07:09:22.204Z,15
2019-01-28T07:10:30.270Z,15
2019-01-28T07:11:38.317Z,15
2019-01-28T07:12:46.379Z,15
2019-01-28T07:13:54.403Z,15
2019-01-28T07:15:02.481Z,20
2019-01-28T07:16:10.547Z,20
2019-01-28T07:17:18.601Z,20
2019-01-28T07:18:26.654Z,25
2019-01-28T07:19:34.693Z,20
2019-01-28T07:20:42.775Z,30
2019-01-28T07:21:50.842Z,30
2019-01-28T07:22:58.874Z,25
2019-01-28T07:24:06.927Z,30
2019-01-28T07:25:14.992Z,30
2019-01-28T07:26:23.048Z,35
2019-01-28T07:27:31.113Z,40
2019-01-28T07:28:39.161Z,40
2019-01-28T07:29:47.205Z,45
2019-01-28T07:30:55.272Z,45
2019-01-28T07:32:03.318Z,50
2019-01-28T07:33:11.393Z,50
2019-01-28T07:34:19.469Z,45
2019-01-28T07:35:27.503Z,40
2019-01-28T07:36:35.583Z,40
2019-01-28T07:37:43.618Z,40
2019-01-28T07:38:51.678Z,40
2019-01-28T07:39:59.736Z,40
2019-01-28T07:41:07.770Z,40
2019-01-28T07:42:15.843Z,50
2019-01-28T07:43:23.890Z,45
2019-01-28T07:44:31.947Z,45
2019-01-28T07:45:44.826Z,45
2019-01-28T07:46:48.047Z,45
2019-01-28T07:48:02.620Z,50
2019-01-28T07:49:04.143Z,60
2019-01-28T07:50:12.235Z,60
2019-01-28T07:51:20.285Z,60
2019-01-28T07:52:28.351Z,70
2019-01-28T07:53:36.411Z,65
2019-01-28T07:54:44.420Z,65
2019-01-28T07:55:52.518Z,75
2019-01-28T07:57:00.568Z,70
2019-01-28T07:58:08.630Z,85
2019-01-28T07:59:16.687Z,70
2019-01-28T08:00:24.720Z,85
2019-01-28T08:01:32.787Z,90
2019-01-28T08:02:40.858Z,95
2019-01-28T08:03:48.912Z,105
2019-01-28T08:04:56.973Z,105
2019-01-28T08:06:05.021Z,100
2019-01-28T08:07:13.074Z,110
2019-01-28T08:08:21.119Z,135
2019-01-28T08:09:29.199Z,115
2019-01-28T08:10:37.250Z,115
2019-01-28T08:11:45.311Z,120
2019-01-28T08:12:53.357Z,135
2019-01-28T08:14:01.409Z,120
2019-01-28T08:15:09.515Z,95
2019-01-28T08:16:17.541Z,105
2019-01-28T08:17:25.597Z,100
2019-01-28T08:18:33.645Z,105
2019-01-28T08:19:41.706Z,95
2019-01-28T08:20:49.762Z,105
2019-01-28T08:21:57.808Z,100
2019-01-28T08:23:05.865Z,115
2019-01-28T08:24:13.909Z,95
2019-01-28T08:25:21.991Z,110
2019-01-28T08:26:30.046Z,105
2019-01-28T08:27:38.107Z,110
2019-01-28T08:28:46.151Z,115
2019-01-28T08:29:54.196Z,125
2019-01-28T08:31:02.263Z,105
2019-01-28T08:32:10.330Z,110
2019-01-28T08:33:18.384Z,120
2019-01-28T08:34:26.446Z,125
2019-01-28T08:35:34.469Z,115
2019-01-28T08:36:42.599Z,110
2019-01-28T08:37:50.618Z,120
2019-01-28T08:38:58.679Z,115
2019-01-28T08:40:06.718Z,120
2019-01-28T08:41:14.772Z,125
2019-01-28T08:42:22.834Z,115
2019-01-28T08:43:30.905Z,125
2019-01-28T08:44:38.954Z,130
2019-01-28T08:45:47.007Z,135
2019-01-28T08:46:55.068Z,130
2019-01-28T08:48:03.125Z,120
2019-01-28T08:49:11.171Z,140
2019-01-28T08:50:19.218Z,150
2019-01-28T08:51:27.297Z,140
2019-01-28T08:52:35.347Z,180
2019-01-28T08:53:43.422Z,210
2019-01-28T08:54:51.456Z,220
2019-01-28T08:55:59.519Z,225
2019-01-28T08:57:07.575Z,260
2019-01-28T08:58:15.632Z,240
2019-01-28T08:59:23.700Z,215
2019-01-28T09:00:31.756Z,245
2019-01-28T09:01:39.819Z,215
2019-01-28T09:02:47.874Z,225
2019-01-28T09:03:55.922Z,260
2019-01-28T09:05:03.960Z,285
2019-01-28T09:06:12.037Z,250
2019-01-28T09:07:20.098Z,215
2019-01-28T09:08:28.163Z,235
2019-01-28T09:09:36.213Z,225
2019-01-28T09:10:44.243Z,200
2019-01-28T09:11:52.312Z,195
2019-01-28T09:13:00.389Z,210
2019-01-28T09:14:08.452Z,205
2019-01-28T09:15:16.498Z,210
2019-01-28T09:16:24.520Z,165
2019-01-28T09:17:32.609Z,150
2019-01-28T09:18:40.687Z,165
2019-01-28T09:19:48.744Z,230
2019-01-28T09:20:56.784Z,255
2019-01-28T09:22:04.828Z,230
2019-01-28T09:23:12.897Z,205
2019-01-28T09:24:20.965Z,195
2019-01-28T09:25:29.016Z,190
2019-01-28T09:26:37.077Z,190
2019-01-28T09:27:45.154Z,240
2019-01-28T09:28:53.238Z,280
2019-01-28T09:30:01.247Z,300
2019-01-28T09:31:09.314Z,295
2019-01-28T09:32:17.369Z,275
2019-01-28T09:33:25.421Z,265
2019-01-28T09:34:33.489Z,245
2019-01-28T09:35:41.553Z,255
2019-01-28T09:36:49.592Z,225
2019-01-28T09:37:57.671Z,240
2019-01-28T09:39:05.713Z,245
2019-01-28T09:40:13.764Z,235
2019-01-28T09:41:21.829Z,260
2019-01-28T09:42:29.900Z,265
2019-01-28T09:43:37.950Z,245
2019-01-28T09:44:46.010Z,270
2019-01-28T09:45:54.029Z,310
2019-01-28T09:47:02.115Z,235
2019-01-28T09:48:10.178Z,250
2019-01-28T09:49:18.241Z,255
2019-01-28T09:50:26.337Z,280
2019-01-28T09:51:34.338Z,285
2019-01-28T09:52:42.416Z,255
2019-01-28T09:53:50.476Z,295
2019-01-28T09:54:58.515Z,345
2019-01-28T09:56:06.592Z,265
2019-01-28T09:57:14.623Z,250
2019-01-28T09:58:22.704Z,195
2019-01-28T09:59:30.761Z,155
2019-01-28T10:00:38.835Z,155
2019-01-28T10:01:46.899Z,195
2019-01-28T10:02:54.943Z,260
2019-01-28T10:04:02.997Z,290
2019-01-28T10:05:11.057Z,265
2019-01-28T10:06:19.124Z,285
2019-01-28T10:07:27.173Z,280
2019-01-28T10:08:35.219Z,305
2019-01-28T10:09:43.323Z,350
2019-01-28T10:10:51.432Z,345
2019-01-28T10:11:59.414Z,285
2019-01-28T10:13:07.462Z,245
2019-01-28T10:14:15.529Z,355
2019-01-28T10:15:28.446Z,445
2019-01-28T10:16:31.627Z,360
2019-01-28T10:17:39.702Z,420
2019-01-28T10:18:47.773Z,510
2019-01-28T10:19:55.823Z,550
2019-01-28T10:21:03.869Z,460
2019-01-28T10:22:11.927Z,450
2019-01-28T10:23:19.993Z,420
2019-01-28T10:24:28.066Z,365
2019-01-28T10:25:36.121Z,385
2019-01-28T10:26:44.146Z,475
2019-01-28T10:27:52.223Z,410
2019-01-28T10:29:00.318Z,335
2019-01-28T10:30:08.356Z,485
2019-01-28T10:31:16.448Z,450
2019-01-28T10:32:24.449Z,395
2019-01-28T10:33:32.514Z,350
2019-01-28T10:34:40.584Z,405
2019-01-28T10:35:48.667Z,375
2019-01-28T10:36:56.719Z,315
2019-01-28T10:38:04.758Z,355
2019-01-28T10:39:12.838Z,340
2019-01-28T10:40:20.882Z,345
2019-01-28T10:41:28.954Z,295
2019-01-28T10:42:37.007Z,295
2019-01-28T10:43:45.076Z,305
2019-01-28T10:44:53.127Z,325
2019-01-28T10:46:01.191Z,340
2019-01-28T10:47:09.254Z,345
2019-01-28T10:48:17.304Z,315
2019-01-28T10:49:25.393Z,325
2019-01-28T10:50:33.436Z,335
2019-01-28T10:51:41.496Z,290
2019-01-28T10:52:49.552Z,290
2019-01-28T10:53:57.605Z,300
2019-01-28T10:55:05.666Z,270
2019-01-28T10:56:13.721Z,270
2019-01-28T10:57:21.811Z,265
2019-01-28T10:58:29.845Z,275
2019-01-28T10:59:37.950Z,280
2019-01-28T11:00:45.973Z,270
2019-01-28T11:01:54.003Z,280
2019-01-28T11:03:02.082Z,305
2019-01-28T11:04:10.142Z,280
2019-01-28T11:05:18.208Z,265
2019-01-28T11:06:26.279Z,275
2019-01-28T11:07:34.296Z,270
2019-01-28T11:08:42.393Z,275
2019-01-28T11:09:50.520Z,285
2019-01-28T11:10:58.601Z,270
2019-01-28T11:12:06.558Z,290
2019-01-28T11:13:14.694Z,310
2019-01-28T11:14:22.786Z,280
2019-01-28T11:15:30.740Z,310
2019-01-28T11:16:38.921Z,305
2019-01-28T11:17:46.870Z,310
2019-01-28T11:18:57.689Z,325
2019-01-28T11:20:02.975Z,270
2019-01-28T11:21:11.123Z,325
2019-01-28T11:22:19.115Z,290
2019-01-28T11:23:27.248Z,315
2019-01-28T11:24:35.247Z,400
2019-01-28T11:25:43.286Z,325
2019-01-28T11:26:51.485Z,320
2019-01-28T11:27:59.523Z,310
2019-01-28T11:29:07.542Z,345
2019-01-28T11:30:15.512Z,365
2019-01-28T11:31:23.662Z,405
2019-01-28T11:32:31.785Z,365
2019-01-28T11:33:39.908Z,350
2019-01-28T11:34:47.835Z,290
2019-01-28T11:35:55.945Z,275
2019-01-28T11:37:03.860Z,270
2019-01-28T11:38:12.043Z,300
2019-01-28T11:39:20.041Z,290
2019-01-28T11:40:28.038Z,275
2019-01-28T11:41:36.210Z,280
2019-01-28T11:42:44.295Z,250
2019-01-28T11:43:52.273Z,270
2019-01-28T11:45:00.412Z,240
2019-01-28T11:46:08.407Z,230
2019-01-28T11:47:16.475Z,245
2019-01-28T11:48:24.460Z,245
2019-01-28T11:49:32.552Z,225
2019-01-28T11:50:40.588Z,235
2019-01-28T11:51:48.627Z,230
2019-01-28T11:52:56.712Z,235
2019-01-28T11:54:04.785Z,240
2019-01-28T11:55:12.820Z,285
2019-01-28T11:56:20.882Z,230
2019-01-28T11:57:29.030Z,230
2019-01-28T11:58:37.005Z,215
2019-01-28T11:59:45.056Z,225
2019-01-28T12:00:53.106Z,215
2019-01-28T12:02:01.178Z,195
2019-01-28T12:03:09.220Z,205
2019-01-28T12:04:18.931Z,230
2019-01-28T12:05:25.348Z,245
2019-01-28T12:06:33.402Z,290
2019-01-28T12:07:41.458Z,255
2019-01-28T12:08:49.523Z,250
2019-01-28T12:09:57.586Z,315
2019-01-28T12:11:05.646Z,250
2019-01-28T12:12:13.695Z,245
2019-01-28T12:13:21.758Z,280
2019-01-28T12:14:29.817Z,315
2019-01-28T12:15:37.884Z,355
2019-01-28T12:16:45.927Z,320
2019-01-28T12:17:54.066Z,275
2019-01-28T12:19:02.058Z,305
2019-01-28T12:20:10.109Z,320
2019-01-28T12:21:18.184Z,350
2019-01-28T12:22:26.250Z,285
2019-01-28T12:23:34.828Z,310
2019-01-28T12:24:42.357Z,235
2019-01-28T12:25:50.419Z,230
2019-01-28T12:26:58.459Z,220
2019-01-28T12:28:06.530Z,220
2019-01-28T12:29:14.570Z,205
2019-01-28T12:30:22.650Z,215
2019-01-28T12:31:30.702Z,185
2019-01-28T12:32:38.767Z,165
2019-01-28T12:33:46.825Z,170
2019-01-28T12:34:54.892Z,160
2019-01-28T12:36:02.932Z,180
2019-01-28T12:37:11.020Z,185
2019-01-28T12:38:19.057Z,185
2019-01-28T12:39:27.128Z,200
2019-01-28T12:40:35.174Z,220
2019-01-28T12:41:43.226Z,235
2019-01-28T12:42:52.546Z,265
2019-01-28T12:43:59.358Z,250
2019-01-28T12:45:07.402Z,235
2019-01-28T12:46:15.462Z,220
2019-01-28T12:47:23.510Z,240
2019-01-28T12:48:31.579Z,245
2019-01-28T12:49:39.651Z,225
2019-01-28T12:50:47.693Z,210
2019-01-28T12:51:55.757Z,215
2019-01-28T12:53:03.811Z,220
2019-01-28T12:54:11.872Z,220
2019-01-28T12:55:19.930Z,215
2019-01-28T12:56:28.002Z,210
2019-01-28T12:57:36.097Z,210
2019-01-28T12:58:44.094Z,195
2019-01-28T12:59:52.166Z,200
2019-01-28T13:01:00.217Z,220
2019-01-28T13:02:08.291Z,210
2019-01-28T13:03:16.330Z,205
2019-01-28T13:04:24.376Z,200
2019-01-28T13:05:32.457Z,200
2019-01-28T13:06:40.520Z,205
2019-01-28T13:07:48.574Z,200
2019-01-28T13:08:56.623Z,195
2019-01-28T13:10:04.662Z,195
2019-01-28T13:11:12.766Z,185
2019-01-28T13:12:20.809Z,200
2019-01-28T13:13:28.881Z,195
2019-01-28T13:14:36.923Z,200
2019-01-28T13:15:44.987Z,195
2019-01-28T13:16:53.032Z,210
2019-01-28T13:18:01.102Z,215
2019-01-28T13:19:09.185Z,220
2019-01-28T13:20:17.207Z,225
2019-01-28T13:21:25.277Z,235
2019-01-28T13:22:33.326Z,250
2019-01-28T13:23:42.934Z,260
2019-01-28T13:24:49.462Z,260
2019-01-28T13:25:57.509Z,260
2019-01-28T13:27:05.564Z,265
2019-01-28T13:28:13.613Z,260
2019-01-28T13:29:21.685Z,265
2019-01-28T13:30:29.743Z,265
2019-01-28T13:31:38.069Z,260
2019-01-28T13:32:45.854Z,260
2019-01-28T13:33:53.932Z,275
2019-01-28T13:35:01.964Z,260
2019-01-28T13:36:10.025Z,265
2019-01-28T13:37:18.081Z,260
2019-01-28T13:38:26.137Z,250
2019-01-28T13:39:34.182Z,250
2019-01-28T13:40:42.273Z,240
2019-01-28T13:41:50.314Z,240
2019-01-28T13:42:58.395Z,235
2019-01-28T13:44:06.432Z,250
2019-01-28T13:45:14.471Z,250
2019-01-28T13:46:22.563Z,250
2019-01-28T13:47:30.615Z,250
2019-01-28T13:48:38.690Z,245
2019-01-28T13:49:46.723Z,250
2019-01-28T13:50:54.777Z,245
2019-01-28T13:52:02.858Z,235
2019-01-28T13:53:10.932Z,250
2019-01-28T13:54:18.966Z,255
2019-01-28T13:55:27.018Z,235
2019-01-28T13:56:35.091Z,240
2019-01-28T13:57:43.130Z,250
2019-01-28T13:58:51.605Z,240
2019-01-28T13:59:59.265Z,245
2019-01-28T14:01:07.313Z,245
2019-01-28T14:02:15.374Z,215
2019-01-28T14:03:23.428Z,235
2019-01-28T14:04:31.504Z,230
2019-01-28T14:05:39.555Z,215
2019-01-28T14:06:47.607Z,250
2019-01-28T14:07:55.669Z,260
2019-01-28T14:09:03.704Z,270
2019-01-28T14:10:11.792Z,285
2019-01-28T14:11:19.856Z,240
2019-01-28T14:12:27.905Z,255
2019-01-28T14:13:35.959Z,230
2019-01-28T14:14:44.023Z,245
2019-01-28T14:15:52.082Z,225
2019-01-28T14:17:00.116Z,210
2019-01-28T14:18:08.194Z,215
2019-01-28T14:19:16.274Z,185
2019-01-28T14:20:24.308Z,210
2019-01-28T14:21:32.384Z,190
2019-01-28T14:22:40.426Z,200
2019-01-28T14:23:48.497Z,210
2019-01-28T14:24:56.636Z,210
2019-01-28T14:26:04.606Z,200
2019-01-28T14:27:12.665Z,210
2019-01-28T14:28:20.711Z,230
2019-01-28T14:29:28.786Z,225
2019-01-28T14:30:36.828Z,220
2019-01-28T14:31:44.892Z,230
2019-01-28T14:32:52.955Z,225
2019-01-28T14:34:01.035Z,220
2019-01-28T14:35:09.071Z,220
2019-01-28T14:36:17.125Z,200
2019-01-28T14:37:25.196Z,205
2019-01-28T14:38:33.627Z,205
2019-01-28T14:39:41.307Z,190
2019-01-28T14:40:49.458Z,190
2019-01-28T14:41:57.420Z,185
2019-01-28T14:43:05.488Z,175
2019-01-28T14:44:13.618Z,170
2019-01-28T14:45:21.601Z,170
2019-01-28T14:46:29.657Z,155
2019-01-28T14:47:37.719Z,155
2019-01-28T14:48:49.130Z,150
2019-01-28T14:49:54.543Z,140
2019-01-28T14:51:01.896Z,130
2019-01-28T14:52:09.931Z,125
2019-01-28T14:53:18.006Z,120
2019-01-28T14:54:26.061Z,115
2019-01-28T14:55:34.097Z,110
2019-01-28T14:56:42.161Z,105
2019-01-28T14:57:50.243Z,105
2019-01-28T14:58:58.298Z,100
2019-01-28T15:00:06.350Z,100
2019-01-28T15:01:14.381Z,95
2019-01-28T15:02:22.474Z,90
2019-01-28T15:03:30.510Z,80
2019-01-28T15:04:38.597Z,80
2019-01-28T15:05:46.649Z,70
2019-01-28T15:06:54.681Z,70
2019-01-28T15:08:02.774Z,75
2019-01-28T15:09:10.835Z,70
2019-01-28T15:10:18.876Z,65
2019-01-28T15:11:26.923Z,70
2019-01-28T15:12:34.983Z,75
2019-01-28T15:13:43.086Z,70
2019-01-28T15:14:51.110Z,70
2019-01-28T15:15:59.143Z,70
2019-01-28T15:17:07.212Z,75
2019-01-28T15:18:15.281Z,70
2019-01-28T15:19:23.328Z,80
2019-01-28T15:20:31.399Z,75
2019-01-28T15:21:39.445Z,70
2019-01-28T15:22:47.510Z,65
2019-01-28T15:23:55.551Z,65
2019-01-28T15:25:03.622Z,60
2019-01-28T15:26:11.710Z,65
2019-01-28T15:27:19.728Z,60
2019-01-28T15:28:27.779Z,60
2019-01-28T15:29:35.847Z,60
2019-01-28T15:30:43.922Z,50
2019-01-28T15:31:51.990Z,55
2019-01-28T15:33:00.056Z,55
2019-01-28T15:34:08.062Z,45
2019-01-28T15:35:16.125Z,50
2019-01-28T15:36:24.161Z,45
2019-01-28T15:37:32.241Z,45
2019-01-28T15:38:40.304Z,40
2019-01-28T15:39:48.356Z,45
2019-01-28T15:40:56.409Z,35
2019-01-28T15:42:04.431Z,35
2019-01-28T15:43:12.513Z,30
2019-01-28T15:44:20.630Z,30
2019-01-28T15:45:28.652Z,35
2019-01-28T15:46:36.730Z,30
2019-01-28T15:47:44.731Z,25
2019-01-28T15:48:52.804Z,25
2019-01-28T15:50:00.864Z,25
2019-01-28T15:51:08.927Z,25
2019-01-28T15:52:16.982Z,25
2019-01-28T15:53:25.040Z,20
2019-01-28T15:54:33.099Z,20
2019-01-28T15:55:41.156Z,20
2019-01-28T15:56:49.199Z,20
2019-01-28T15:57:57.269Z,15
2019-01-28T15:59:05.325Z,15
2019-01-28T16:00:13.388Z,15
2019-01-28T16:01:21.437Z,15
2019-01-28T16:02:29.503Z,10
2019-01-28T16:03:37.611Z,15
2019-01-28T16:04:45.603Z,15
2019-01-28T16:05:53.659Z,10
2019-01-28T16:07:01.715Z,10
2019-01-28T16:08:09.770Z,10
2019-01-28T16:09:17.832Z,10
2019-01-28T16:10:25.900Z,5